sensor_id;sensor_type;location;lat;lon;timestamp;temperature;humidity
25825;DHT22;13658;44.534;18.694;2024-03-02T00:02:25;9.00;99.90
25825;DHT22;13658;44.534;18.694;2024-03-02T00:04:51;8.80;99.90
25825;DHT22;13658;44.534;18.694;2024-03-02T00:07:17;8.80;99.90
25825;DHT22;13658;44.534;18.694;2024-03-02T00:09:44;8.80;99.90
25825;DHT22;13658;44.534;18.694;2024-03-02T00:12:12;8.80;99.90
25825;DHT22;13658;44.534;18.694;2024-03-02T00:14:40;8.80;99.90
25825;DHT22;13658;44.534;18.694;2024-03-02T00:17:17;8.80;99.90
25825;DHT22;13658;44.534;18.694;2024-03-02T00:19:47;8.80;99.90
25825;DHT22;13658;44.534;18.694;2024-03-02T00:22:12;8.80;99.90
25825;DHT22;13658;44.534;18.694;2024-03-02T00:24:39;8.60;99.90
25825;DHT22;13658;44.534;18.694;2024-03-02T00:27:07;8.40;99.90
25825;DHT22;13658;44.534;18.694;2024-03-02T00:29:35;8.20;99.90
25825;DHT22;13658;44.534;18.694;2024-03-02T00:32:01;8.00;99.90
25825;DHT22;13658;44.534;18.694;2024-03-02T00:34:27;8.00;99.90
25825;DHT22;13658;44.534;18.694;2024-03-02T00:36:53;7.90;99.90
25825;DHT22;13658;44.534;18.694;2024-03-02T00:39:19;7.80;99.90
25825;DHT22;13658;44.534;18.694;2024-03-02T00:41:45;7.80;99.90
25825;DHT22;13658;44.534;18.694;2024-03-02T00:44:12;7.80;99.90
25825;DHT22;13658;44.534;18.694;2024-03-02T00:46:39;8.00;99.90
25825;DHT22;13658;44.534;18.694;2024-03-02T00:51:37;8.20;99.90
25825;DHT22;13658;44.534;18.694;2024-03-02T00:54:06;8.00;99.90
25825;DHT22;13658;44.534;18.694;2024-03-02T00:56:33;8.00;99.90
25825;DHT22;13658;44.534;18.694;2024-03-02T00:59:00;8.00;99.90
25825;DHT22;13658;44.534;18.694;2024-03-02T01:01:26;8.00;99.90
25825;DHT22;13658;44.534;18.694;2024-03-02T01:03:53;8.10;99.90
25825;DHT22;13658;44.534;18.694;2024-03-02T01:06:19;8.30;99.90
25825;DHT22;13658;44.534;18.694;2024-03-02T01:08:45;8.20;99.90
25825;DHT22;13658;44.534;18.694;2024-03-02T01:11:11;8.30;99.90
25825;DHT22;13658;44.534;18.694;2024-03-02T01:13:37;8.30;99.90
25825;DHT22;13658;44.534;18.694;2024-03-02T01:16:03;8.40;99.90
25825;DHT22;13658;44.534;18.694;2024-03-02T01:18:29;8.40;99.90
25825;DHT22;13658;44.534;18.694;2024-03-02T01:20:56;8.40;99.90
25825;DHT22;13658;44.534;18.694;2024-03-02T01:23:23;8.40;99.90
25825;DHT22;13658;44.534;18.694;2024-03-02T01:25:50;8.40;99.90
25825;DHT22;13658;44.534;18.694;2024-03-02T01:28:17;8.40;99.90
25825;DHT22;13658;44.534;18.694;2024-03-02T01:30:44;8.50;99.90
25825;DHT22;13658;44.534;18.694;2024-03-02T01:33:10;8.50;99.90
25825;DHT22;13658;44.534;18.694;2024-03-02T01:35:36;8.50;99.90
25825;DHT22;13658;44.534;18.694;2024-03-02T01:38:03;8.50;99.90
25825;DHT22;13658;44.534;18.694;2024-03-02T01:40:33;8.50;99.90
25825;DHT22;13658;44.534;18.694;2024-03-02T01:42:59;8.50;99.90
25825;DHT22;13658;44.534;18.694;2024-03-02T01:45:25;8.50;99.90
25825;DHT22;13658;44.534;18.694;2024-03-02T01:47:51;8.50;99.90
25825;DHT22;13658;44.534;18.694;2024-03-02T01:50:28;8.50;99.90
25825;DHT22;13658;44.534;18.694;2024-03-02T01:52:58;8.40;99.90
25825;DHT22;13658;44.534;18.694;2024-03-02T01:55:24;8.30;99.90
25825;DHT22;13658;44.534;18.694;2024-03-02T01:57:51;8.30;99.90
25825;DHT22;13658;44.534;18.694;2024-03-02T02:00:21;8.20;99.90
25825;DHT22;13658;44.534;18.694;2024-03-02T02:02:51;8.10;99.90
25825;DHT22;13658;44.534;18.694;2024-03-02T02:05:17;7.90;99.90
25825;DHT22;13658;44.534;18.694;2024-03-02T02:07:43;7.70;99.90
25825;DHT22;13658;44.534;18.694;2024-03-02T02:10:10;7.50;99.90
25825;DHT22;13658;44.534;18.694;2024-03-02T02:12:36;7.40;99.90
25825;DHT22;13658;44.534;18.694;2024-03-02T02:15:22;7.40;99.90
25825;DHT22;13658;44.534;18.694;2024-03-02T02:17:48;7.40;99.90
25825;DHT22;13658;44.534;18.694;2024-03-02T02:20:13;7.40;99.90
25825;DHT22;13658;44.534;18.694;2024-03-02T02:22:39;7.50;99.90
25825;DHT22;13658;44.534;18.694;2024-03-02T02:25:06;7.60;99.90
25825;DHT22;13658;44.534;18.694;2024-03-02T02:27:31;7.70;99.90
25825;DHT22;13658;44.534;18.694;2024-03-02T02:29:57;7.60;99.90
25825;DHT22;13658;44.534;18.694;2024-03-02T02:32:23;7.70;99.90
25825;DHT22;13658;44.534;18.694;2024-03-02T02:34:52;7.80;99.90
25825;DHT22;13658;44.534;18.694;2024-03-02T02:37:18;7.90;99.90
25825;DHT22;13658;44.534;18.694;2024-03-02T02:39:44;8.00;99.90
25825;DHT22;13658;44.534;18.694;2024-03-02T02:42:12;8.10;99.90
25825;DHT22;13658;44.534;18.694;2024-03-02T02:44:38;8.10;99.90
25825;DHT22;13658;44.534;18.694;2024-03-02T02:47:04;8.10;99.90
25825;DHT22;13658;44.534;18.694;2024-03-02T02:49:31;8.00;99.90
25825;DHT22;13658;44.534;18.694;2024-03-02T02:51:57;8.10;99.90
25825;DHT22;13658;44.534;18.694;2024-03-02T02:54:23;8.10;99.90
25825;DHT22;13658;44.534;18.694;2024-03-02T02:56:48;8.00;99.90
25825;DHT22;13658;44.534;18.694;2024-03-02T02:59:14;7.80;99.90
25825;DHT22;13658;44.534;18.694;2024-03-02T03:01:40;7.50;99.90
25825;DHT22;13658;44.534;18.694;2024-03-02T03:04:06;7.40;99.90
25825;DHT22;13658;44.534;18.694;2024-03-02T03:06:32;7.30;99.90
25825;DHT22;13658;44.534;18.694;2024-03-02T03:08:58;7.30;99.90
25825;DHT22;13658;44.534;18.694;2024-03-02T03:11:24;7.40;99.90
25825;DHT22;13658;44.534;18.694;2024-03-02T03:13:52;7.60;99.90
25825;DHT22;13658;44.534;18.694;2024-03-02T03:16:20;7.70;99.90
25825;DHT22;13658;44.534;18.694;2024-03-02T03:18:46;7.70;99.90
25825;DHT22;13658;44.534;18.694;2024-03-02T03:21:11;7.60;99.90
25825;DHT22;13658;44.534;18.694;2024-03-02T03:23:37;7.40;99.90
25825;DHT22;13658;44.534;18.694;2024-03-02T03:26:03;7.50;99.90
25825;DHT22;13658;44.534;18.694;2024-03-02T03:28:30;7.60;99.90
25825;DHT22;13658;44.534;18.694;2024-03-02T03:30:56;7.50;99.90
25825;DHT22;13658;44.534;18.694;2024-03-02T03:33:21;7.40;99.90
25825;DHT22;13658;44.534;18.694;2024-03-02T03:35:47;7.40;99.90
25825;DHT22;13658;44.534;18.694;2024-03-02T03:38:13;7.50;99.90
25825;DHT22;13658;44.534;18.694;2024-03-02T03:40:39;7.60;99.90
25825;DHT22;13658;44.534;18.694;2024-03-02T03:43:05;7.80;99.90
25825;DHT22;13658;44.534;18.694;2024-03-02T03:45:31;7.80;99.90
25825;DHT22;13658;44.534;18.694;2024-03-02T03:47:57;7.80;99.90
25825;DHT22;13658;44.534;18.694;2024-03-02T03:50:23;7.80;99.90
25825;DHT22;13658;44.534;18.694;2024-03-02T03:52:49;7.60;99.90
25825;DHT22;13658;44.534;18.694;2024-03-02T03:55:15;7.60;99.90
25825;DHT22;13658;44.534;18.694;2024-03-02T03:57:41;7.80;99.90
25825;DHT22;13658;44.534;18.694;2024-03-02T04:00:07;7.40;99.90
25825;DHT22;13658;44.534;18.694;2024-03-02T04:02:38;7.20;99.90
25825;DHT22;13658;44.534;18.694;2024-03-02T04:05:05;7.10;99.90
25825;DHT22;13658;44.534;18.694;2024-03-02T04:07:38;7.20;99.90
25825;DHT22;13658;44.534;18.694;2024-03-02T04:10:09;7.40;99.90
25825;DHT22;13658;44.534;18.694;2024-03-02T04:12:39;7.50;99.90
25825;DHT22;13658;44.534;18.694;2024-03-02T04:15:05;7.50;99.90
25825;DHT22;13658;44.534;18.694;2024-03-02T04:17:33;7.60;99.90
25825;DHT22;13658;44.534;18.694;2024-03-02T04:19:59;7.20;99.90
25825;DHT22;13658;44.534;18.694;2024-03-02T04:22:26;7.30;99.90
25825;DHT22;13658;44.534;18.694;2024-03-02T04:24:52;7.40;99.90
25825;DHT22;13658;44.534;18.694;2024-03-02T04:27:19;7.20;99.90
25825;DHT22;13658;44.534;18.694;2024-03-02T04:29:44;7.10;99.90
25825;DHT22;13658;44.534;18.694;2024-03-02T04:32:10;6.90;99.90
25825;DHT22;13658;44.534;18.694;2024-03-02T04:34:36;6.80;99.90
25825;DHT22;13658;44.534;18.694;2024-03-02T04:37:02;6.80;99.90
25825;DHT22;13658;44.534;18.694;2024-03-02T04:39:28;6.70;99.90
25825;DHT22;13658;44.534;18.694;2024-03-02T04:41:54;6.70;99.90
25825;DHT22;13658;44.534;18.694;2024-03-02T04:44:20;6.70;99.90
25825;DHT22;13658;44.534;18.694;2024-03-02T04:46:46;6.60;99.90
25825;DHT22;13658;44.534;18.694;2024-03-02T04:49:11;6.60;99.90
25825;DHT22;13658;44.534;18.694;2024-03-02T04:51:39;6.60;99.90
25825;DHT22;13658;44.534;18.694;2024-03-02T04:54:05;6.60;99.90
25825;DHT22;13658;44.534;18.694;2024-03-02T04:56:30;6.60;99.90
25825;DHT22;13658;44.534;18.694;2024-03-02T04:58:56;6.70;99.90
25825;DHT22;13658;44.534;18.694;2024-03-02T05:01:22;6.80;99.90
25825;DHT22;13658;44.534;18.694;2024-03-02T05:03:48;6.90;99.90
25825;DHT22;13658;44.534;18.694;2024-03-02T05:06:14;7.00;99.90
25825;DHT22;13658;44.534;18.694;2024-03-02T05:08:40;7.00;99.90
25825;DHT22;13658;44.534;18.694;2024-03-02T05:11:06;7.10;99.90
25825;DHT22;13658;44.534;18.694;2024-03-02T05:13:50;7.10;99.90
25825;DHT22;13658;44.534;18.694;2024-03-02T05:16:16;7.10;99.90
25825;DHT22;13658;44.534;18.694;2024-03-02T05:18:42;7.10;99.90
25825;DHT22;13658;44.534;18.694;2024-03-02T05:21:08;7.10;99.90
25825;DHT22;13658;44.534;18.694;2024-03-02T05:23:34;7.00;99.90
25825;DHT22;13658;44.534;18.694;2024-03-02T05:26:00;6.70;99.90
25825;DHT22;13658;44.534;18.694;2024-03-02T05:28:26;6.70;99.90
25825;DHT22;13658;44.534;18.694;2024-03-02T05:30:51;6.60;99.90
25825;DHT22;13658;44.534;18.694;2024-03-02T05:33:17;6.50;99.90
25825;DHT22;13658;44.534;18.694;2024-03-02T05:35:44;6.30;99.90
25825;DHT22;13658;44.534;18.694;2024-03-02T05:38:10;6.40;99.90
25825;DHT22;13658;44.534;18.694;2024-03-02T05:40:36;6.30;99.90
25825;DHT22;13658;44.534;18.694;2024-03-02T05:43:01;6.30;99.90
25825;DHT22;13658;44.534;18.694;2024-03-02T05:45:27;6.30;99.90
25825;DHT22;13658;44.534;18.694;2024-03-02T05:47:53;6.30;99.90
25825;DHT22;13658;44.534;18.694;2024-03-02T05:50:19;6.20;99.90
25825;DHT22;13658;44.534;18.694;2024-03-02T05:52:45;6.20;99.90
25825;DHT22;13658;44.534;18.694;2024-03-02T05:55:11;6.30;99.90
25825;DHT22;13658;44.534;18.694;2024-03-02T05:57:37;6.30;99.90
25825;DHT22;13658;44.534;18.694;2024-03-02T06:00:09;6.50;99.90
25825;DHT22;13658;44.534;18.694;2024-03-02T06:02:39;6.70;99.90
25825;DHT22;13658;44.534;18.694;2024-03-02T06:05:06;6.80;99.90
25825;DHT22;13658;44.534;18.694;2024-03-02T06:07:35;7.00;99.90
25825;DHT22;13658;44.534;18.694;2024-03-02T06:10:01;7.10;99.90
25825;DHT22;13658;44.534;18.694;2024-03-02T06:12:27;7.20;99.90
25825;DHT22;13658;44.534;18.694;2024-03-02T06:14:53;7.10;99.90
25825;DHT22;13658;44.534;18.694;2024-03-02T06:17:18;7.10;99.90
25825;DHT22;13658;44.534;18.694;2024-03-02T06:19:44;7.30;99.90
25825;DHT22;13658;44.534;18.694;2024-03-02T06:22:10;7.50;99.90
25825;DHT22;13658;44.534;18.694;2024-03-02T06:24:37;7.70;99.90
25825;DHT22;13658;44.534;18.694;2024-03-02T06:27:05;7.90;99.90
25825;DHT22;13658;44.534;18.694;2024-03-02T06:29:34;8.10;99.90
25825;DHT22;13658;44.534;18.694;2024-03-02T06:32:00;8.30;99.90
25825;DHT22;13658;44.534;18.694;2024-03-02T06:34:26;8.20;99.90
25825;DHT22;13658;44.534;18.694;2024-03-02T06:36:52;8.30;99.90
25825;DHT22;13658;44.534;18.694;2024-03-02T06:39:18;8.40;99.90
25825;DHT22;13658;44.534;18.694;2024-03-02T06:41:44;8.50;99.90
25825;DHT22;13658;44.534;18.694;2024-03-02T06:44:09;8.30;99.90
25825;DHT22;13658;44.534;18.694;2024-03-02T06:46:35;8.30;99.90
25825;DHT22;13658;44.534;18.694;2024-03-02T06:49:01;8.30;99.90
25825;DHT22;13658;44.534;18.694;2024-03-02T06:51:28;8.30;99.90
25825;DHT22;13658;44.534;18.694;2024-03-02T06:53:54;8.30;99.90
25825;DHT22;13658;44.534;18.694;2024-03-02T06:56:21;8.50;99.90
25825;DHT22;13658;44.534;18.694;2024-03-02T06:58:46;9.00;99.90
25825;DHT22;13658;44.534;18.694;2024-03-02T07:01:12;9.30;99.90
25825;DHT22;13658;44.534;18.694;2024-03-02T07:03:38;9.70;99.90
25825;DHT22;13658;44.534;18.694;2024-03-02T07:06:07;9.80;99.90
25825;DHT22;13658;44.534;18.694;2024-03-02T07:08:33;10.40;99.90
25825;DHT22;13658;44.534;18.694;2024-03-02T07:10:59;10.30;99.90
25825;DHT22;13658;44.534;18.694;2024-03-02T07:13:26;10.60;99.90
25825;DHT22;13658;44.534;18.694;2024-03-02T07:15:52;10.90;99.90
25825;DHT22;13658;44.534;18.694;2024-03-02T07:18:36;11.10;99.90
25825;DHT22;13658;44.534;18.694;2024-03-02T07:21:10;11.70;99.90
25825;DHT22;13658;44.534;18.694;2024-03-02T07:23:36;12.10;99.90
25825;DHT22;13658;44.534;18.694;2024-03-02T07:26:02;12.00;99.90
25825;DHT22;13658;44.534;18.694;2024-03-02T07:28:29;12.10;99.90
25825;DHT22;13658;44.534;18.694;2024-03-02T07:31:04;12.70;99.90
25825;DHT22;13658;44.534;18.694;2024-03-02T07:33:31;13.40;99.90
25825;DHT22;13658;44.534;18.694;2024-03-02T07:35:57;13.40;99.90
25825;DHT22;13658;44.534;18.694;2024-03-02T07:38:25;13.50;99.90
25825;DHT22;13658;44.534;18.694;2024-03-02T07:40:51;13.30;99.90
25825;DHT22;13658;44.534;18.694;2024-03-02T07:43:17;13.20;99.90
25825;DHT22;13658;44.534;18.694;2024-03-02T07:45:45;13.10;99.90
25825;DHT22;13658;44.534;18.694;2024-03-02T07:48:11;13.30;99.90
25825;DHT22;13658;44.534;18.694;2024-03-02T07:50:37;13.00;99.90
25825;DHT22;13658;44.534;18.694;2024-03-02T07:53:05;12.80;99.90
25825;DHT22;13658;44.534;18.694;2024-03-02T07:55:31;12.70;99.90
25825;DHT22;13658;44.534;18.694;2024-03-02T07:57:57;12.30;99.90
25825;DHT22;13658;44.534;18.694;2024-03-02T08:00:23;12.30;99.90
25825;DHT22;13658;44.534;18.694;2024-03-02T08:02:51;12.30;99.90
25825;DHT22;13658;44.534;18.694;2024-03-02T08:05:18;12.70;99.90
25825;DHT22;13658;44.534;18.694;2024-03-02T08:07:45;13.10;99.90
25825;DHT22;13658;44.534;18.694;2024-03-02T08:10:12;14.30;99.90
25825;DHT22;13658;44.534;18.694;2024-03-02T08:12:38;15.30;99.90
25825;DHT22;13658;44.534;18.694;2024-03-02T08:15:04;16.70;99.90
25825;DHT22;13658;44.534;18.694;2024-03-02T08:17:30;17.40;99.90
25825;DHT22;13658;44.534;18.694;2024-03-02T08:19:57;17.90;99.90
25825;DHT22;13658;44.534;18.694;2024-03-02T08:22:23;18.90;99.90
25825;DHT22;13658;44.534;18.694;2024-03-02T08:24:51;20.00;99.90
25825;DHT22;13658;44.534;18.694;2024-03-02T08:27:17;21.00;99.90
25825;DHT22;13658;44.534;18.694;2024-03-02T08:29:43;21.60;99.90
25825;DHT22;13658;44.534;18.694;2024-03-02T08:32:09;22.20;99.90
25825;DHT22;13658;44.534;18.694;2024-03-02T08:34:35;22.60;99.90
25825;DHT22;13658;44.534;18.694;2024-03-02T08:37:02;24.40;99.90
25825;DHT22;13658;44.534;18.694;2024-03-02T08:39:28;25.30;99.90
25825;DHT22;13658;44.534;18.694;2024-03-02T08:41:54;25.60;99.90
25825;DHT22;13658;44.534;18.694;2024-03-02T08:44:20;25.60;99.90
25825;DHT22;13658;44.534;18.694;2024-03-02T08:46:46;24.30;99.90
25825;DHT22;13658;44.534;18.694;2024-03-02T08:49:13;23.50;99.90
25825;DHT22;13658;44.534;18.694;2024-03-02T08:51:39;25.10;99.90
25825;DHT22;13658;44.534;18.694;2024-03-02T08:54:05;25.10;99.90
25825;DHT22;13658;44.534;18.694;2024-03-02T08:56:31;26.00;99.90
25825;DHT22;13658;44.534;18.694;2024-03-02T08:58:57;27.20;99.90
25825;DHT22;13658;44.534;18.694;2024-03-02T09:01:23;27.90;99.90
25825;DHT22;13658;44.534;18.694;2024-03-02T09:03:49;28.80;99.90
25825;DHT22;13658;44.534;18.694;2024-03-02T09:06:15;27.60;99.90
25825;DHT22;13658;44.534;18.694;2024-03-02T09:08:45;26.40;99.90
25825;DHT22;13658;44.534;18.694;2024-03-02T09:11:11;27.10;99.90
25825;DHT22;13658;44.534;18.694;2024-03-02T09:13:38;28.90;99.90
25825;DHT22;13658;44.534;18.694;2024-03-02T09:16:04;29.10;99.90
25825;DHT22;13658;44.534;18.694;2024-03-02T09:18:31;27.70;99.90
25825;DHT22;13658;44.534;18.694;2024-03-02T09:20:57;29.20;99.90
25825;DHT22;13658;44.534;18.694;2024-03-02T09:23:22;29.20;99.90
25825;DHT22;13658;44.534;18.694;2024-03-02T09:25:48;30.40;99.90
25825;DHT22;13658;44.534;18.694;2024-03-02T09:28:17;31.50;99.90
25825;DHT22;13658;44.534;18.694;2024-03-02T09:30:44;31.40;99.90
25825;DHT22;13658;44.534;18.694;2024-03-02T09:33:10;31.60;99.90
25825;DHT22;13658;44.534;18.694;2024-03-02T09:35:35;32.00;99.90
25825;DHT22;13658;44.534;18.694;2024-03-02T09:38:01;32.10;99.90
25825;DHT22;13658;44.534;18.694;2024-03-02T09:40:29;32.30;99.90
25825;DHT22;13658;44.534;18.694;2024-03-02T09:42:55;30.80;99.90
25825;DHT22;13658;44.534;18.694;2024-03-02T09:45:23;30.90;99.90
25825;DHT22;13658;44.534;18.694;2024-03-02T09:47:50;31.50;99.90
25825;DHT22;13658;44.534;18.694;2024-03-02T09:50:16;30.90;99.90
25825;DHT22;13658;44.534;18.694;2024-03-02T09:52:43;31.50;99.90
25825;DHT22;13658;44.534;18.694;2024-03-02T09:55:09;32.20;99.90
25825;DHT22;13658;44.534;18.694;2024-03-02T09:57:37;30.90;99.90
25825;DHT22;13658;44.534;18.694;2024-03-02T10:00:03;32.20;99.90
25825;DHT22;13658;44.534;18.694;2024-03-02T10:02:30;30.20;99.90
25825;DHT22;13658;44.534;18.694;2024-03-02T10:04:56;31.40;99.90
25825;DHT22;13658;44.534;18.694;2024-03-02T10:07:22;31.20;99.90
25825;DHT22;13658;44.534;18.694;2024-03-02T10:09:48;30.00;99.90
25825;DHT22;13658;44.534;18.694;2024-03-02T10:12:16;31.30;99.90
25825;DHT22;13658;44.534;18.694;2024-03-02T10:14:42;32.00;99.90
25825;DHT22;13658;44.534;18.694;2024-03-02T10:17:10;31.70;99.90
25825;DHT22;13658;44.534;18.694;2024-03-02T10:19:37;30.50;99.90
25825;DHT22;13658;44.534;18.694;2024-03-02T10:22:09;30.50;99.90
25825;DHT22;13658;44.534;18.694;2024-03-02T10:24:39;31.00;99.90
25825;DHT22;13658;44.534;18.694;2024-03-02T10:27:28;30.70;99.90
25825;DHT22;13658;44.534;18.694;2024-03-02T10:29:55;31.20;99.90
25825;DHT22;13658;44.534;18.694;2024-03-02T10:32:22;29.00;99.90
25825;DHT22;13658;44.534;18.694;2024-03-02T10:34:50;27.50;99.90
25825;DHT22;13658;44.534;18.694;2024-03-02T10:37:16;28.60;99.90
25825;DHT22;13658;44.534;18.694;2024-03-02T10:39:46;29.40;99.90
25825;DHT22;13658;44.534;18.694;2024-03-02T10:42:14;29.30;99.90
25825;DHT22;13658;44.534;18.694;2024-03-02T10:44:41;29.10;99.90
25825;DHT22;13658;44.534;18.694;2024-03-02T10:47:09;29.50;99.90
25825;DHT22;13658;44.534;18.694;2024-03-02T10:49:38;29.50;99.90
25825;DHT22;13658;44.534;18.694;2024-03-02T10:52:07;28.70;99.90
25825;DHT22;13658;44.534;18.694;2024-03-02T10:54:34;28.00;99.90
25825;DHT22;13658;44.534;18.694;2024-03-02T10:57:07;25.90;99.90
25825;DHT22;13658;44.534;18.694;2024-03-02T10:59:36;26.80;99.90
25825;DHT22;13658;44.534;18.694;2024-03-02T11:02:04;27.50;99.90
25825;DHT22;13658;44.534;18.694;2024-03-02T11:04:32;26.80;99.90
25825;DHT22;13658;44.534;18.694;2024-03-02T11:07:07;26.90;99.90
25825;DHT22;13658;44.534;18.694;2024-03-02T11:09:37;27.50;99.90
25825;DHT22;13658;44.534;18.694;2024-03-02T11:12:22;25.00;99.90
25825;DHT22;13658;44.534;18.694;2024-03-02T11:14:48;22.80;99.90
25825;DHT22;13658;44.534;18.694;2024-03-02T11:17:17;22.40;99.90
25825;DHT22;13658;44.534;18.694;2024-03-02T11:19:44;21.70;99.90
25825;DHT22;13658;44.534;18.694;2024-03-02T11:22:11;21.50;99.90
25825;DHT22;13658;44.534;18.694;2024-03-02T11:24:38;21.20;99.90
25825;DHT22;13658;44.534;18.694;2024-03-02T11:27:05;20.60;99.90
25825;DHT22;13658;44.534;18.694;2024-03-02T11:32:03;20.00;99.90
25825;DHT22;13658;44.534;18.694;2024-03-02T11:34:34;19.90;99.90
25825;DHT22;13658;44.534;18.694;2024-03-02T11:37:04;19.60;99.90
25825;DHT22;13658;44.534;18.694;2024-03-02T11:39:30;19.80;99.90
25825;DHT22;13658;44.534;18.694;2024-03-02T11:41:57;19.80;99.90
25825;DHT22;13658;44.534;18.694;2024-03-02T11:44:33;19.90;99.90
25825;DHT22;13658;44.534;18.694;2024-03-02T11:47:06;19.80;99.90
25825;DHT22;13658;44.534;18.694;2024-03-02T11:49:44;19.60;99.90
25825;DHT22;13658;44.534;18.694;2024-03-02T11:52:11;19.60;99.90
25825;DHT22;13658;44.534;18.694;2024-03-02T11:54:39;19.70;99.90
25825;DHT22;13658;44.534;18.694;2024-03-02T11:57:06;19.80;99.90
25825;DHT22;13658;44.534;18.694;2024-03-02T11:59:32;19.50;99.90
25825;DHT22;13658;44.534;18.694;2024-03-02T12:01:59;19.40;99.90
25825;DHT22;13658;44.534;18.694;2024-03-02T12:04:26;19.30;99.90
25825;DHT22;13658;44.534;18.694;2024-03-02T12:06:59;19.30;99.90
25825;DHT22;13658;44.534;18.694;2024-03-02T12:09:28;19.30;99.90
25825;DHT22;13658;44.534;18.694;2024-03-02T12:12:08;19.00;99.90
25825;DHT22;13658;44.534;18.694;2024-03-02T12:14:35;18.90;99.90
25825;DHT22;13658;44.534;18.694;2024-03-02T12:17:02;18.80;99.90
25825;DHT22;13658;44.534;18.694;2024-03-02T12:19:30;18.90;99.90
25825;DHT22;13658;44.534;18.694;2024-03-02T12:21:57;19.00;99.90
25825;DHT22;13658;44.534;18.694;2024-03-02T12:24:24;19.00;99.90
25825;DHT22;13658;44.534;18.694;2024-03-02T12:26:54;19.00;99.90
25825;DHT22;13658;44.534;18.694;2024-03-02T12:29:20;18.80;99.90
25825;DHT22;13658;44.534;18.694;2024-03-02T12:31:51;18.90;99.90
25825;DHT22;13658;44.534;18.694;2024-03-02T12:34:18;18.80;99.90
25825;DHT22;13658;44.534;18.694;2024-03-02T12:36:46;19.00;99.90
25825;DHT22;13658;44.534;18.694;2024-03-02T12:39:18;18.90;99.90
25825;DHT22;13658;44.534;18.694;2024-03-02T12:41:46;19.10;99.90
25825;DHT22;13658;44.534;18.694;2024-03-02T12:44:13;19.20;99.90
25825;DHT22;13658;44.534;18.694;2024-03-02T12:46:39;19.00;99.90
25825;DHT22;13658;44.534;18.694;2024-03-02T12:49:14;19.20;99.90
25825;DHT22;13658;44.534;18.694;2024-03-02T12:51:42;19.20;99.90
25825;DHT22;13658;44.534;18.694;2024-03-02T12:54:09;19.10;99.90
25825;DHT22;13658;44.534;18.694;2024-03-02T12:56:36;18.90;99.90
25825;DHT22;13658;44.534;18.694;2024-03-02T12:59:03;18.80;99.90
25825;DHT22;13658;44.534;18.694;2024-03-02T13:01:30;18.70;99.90
25825;DHT22;13658;44.534;18.694;2024-03-02T13:03:58;18.90;99.90
25825;DHT22;13658;44.534;18.694;2024-03-02T13:06:25;18.90;99.90
25825;DHT22;13658;44.534;18.694;2024-03-02T13:08:54;18.80;99.90
25825;DHT22;13658;44.534;18.694;2024-03-02T13:11:24;18.90;99.90
25825;DHT22;13658;44.534;18.694;2024-03-02T13:13:51;19.00;99.90
25825;DHT22;13658;44.534;18.694;2024-03-02T13:16:18;18.90;99.90
25825;DHT22;13658;44.534;18.694;2024-03-02T13:18:45;18.80;99.90
25825;DHT22;13658;44.534;18.694;2024-03-02T13:21:11;18.90;99.90
25825;DHT22;13658;44.534;18.694;2024-03-02T13:23:37;18.80;99.90
25825;DHT22;13658;44.534;18.694;2024-03-02T13:26:03;18.80;99.90
25825;DHT22;13658;44.534;18.694;2024-03-02T13:28:29;18.90;99.90
25825;DHT22;13658;44.534;18.694;2024-03-02T13:30:55;19.00;99.90
25825;DHT22;13658;44.534;18.694;2024-03-02T13:33:21;19.10;99.90
25825;DHT22;13658;44.534;18.694;2024-03-02T13:35:50;18.90;99.90
25825;DHT22;13658;44.534;18.694;2024-03-02T13:38:19;18.60;99.90
25825;DHT22;13658;44.534;18.694;2024-03-02T13:40:46;18.90;99.90
25825;DHT22;13658;44.534;18.694;2024-03-02T13:43:14;18.80;99.90
25825;DHT22;13658;44.534;18.694;2024-03-02T13:45:39;18.60;99.90
25825;DHT22;13658;44.534;18.694;2024-03-02T13:48:06;18.60;99.90
25825;DHT22;13658;44.534;18.694;2024-03-02T13:50:32;18.70;99.90
25825;DHT22;13658;44.534;18.694;2024-03-02T13:52:58;18.80;99.90
25825;DHT22;13658;44.534;18.694;2024-03-02T13:55:24;18.80;99.90
25825;DHT22;13658;44.534;18.694;2024-03-02T13:57:50;18.90;99.90
25825;DHT22;13658;44.534;18.694;2024-03-02T14:00:17;18.70;99.90
25825;DHT22;13658;44.534;18.694;2024-03-02T14:02:45;18.60;99.90
25825;DHT22;13658;44.534;18.694;2024-03-02T14:05:11;18.80;99.90
25825;DHT22;13658;44.534;18.694;2024-03-02T14:07:46;18.80;99.90
25825;DHT22;13658;44.534;18.694;2024-03-02T14:10:12;18.90;99.90
25825;DHT22;13658;44.534;18.694;2024-03-02T14:12:38;18.70;99.90
25825;DHT22;13658;44.534;18.694;2024-03-02T14:15:04;18.60;99.90
25825;DHT22;13658;44.534;18.694;2024-03-02T14:17:30;18.80;99.90
25825;DHT22;13658;44.534;18.694;2024-03-02T14:19:57;18.80;99.90
25825;DHT22;13658;44.534;18.694;2024-03-02T14:22:25;19.00;99.90
25825;DHT22;13658;44.534;18.694;2024-03-02T14:24:51;19.00;99.90
25825;DHT22;13658;44.534;18.694;2024-03-02T14:27:16;19.00;99.90
25825;DHT22;13658;44.534;18.694;2024-03-02T14:29:43;19.00;99.90
25825;DHT22;13658;44.534;18.694;2024-03-02T14:32:09;19.00;99.90
25825;DHT22;13658;44.534;18.694;2024-03-02T14:34:35;19.00;99.90
25825;DHT22;13658;44.534;18.694;2024-03-02T14:37:01;18.90;99.90
25825;DHT22;13658;44.534;18.694;2024-03-02T14:39:28;18.80;99.90
25825;DHT22;13658;44.534;18.694;2024-03-02T14:41:55;18.70;99.90
25825;DHT22;13658;44.534;18.694;2024-03-02T14:44:21;18.70;99.90
25825;DHT22;13658;44.534;18.694;2024-03-02T14:46:48;18.40;99.90
25825;DHT22;13658;44.534;18.694;2024-03-02T14:49:14;18.20;99.90
25825;DHT22;13658;44.534;18.694;2024-03-02T14:51:40;18.10;99.90
25825;DHT22;13658;44.534;18.694;2024-03-02T14:54:06;17.90;99.90
25825;DHT22;13658;44.534;18.694;2024-03-02T14:56:32;17.60;99.90
25825;DHT22;13658;44.534;18.694;2024-03-02T14:58:58;17.40;99.90
25825;DHT22;13658;44.534;18.694;2024-03-02T15:01:24;17.40;99.90
25825;DHT22;13658;44.534;18.694;2024-03-02T15:03:51;17.50;99.90
25825;DHT22;13658;44.534;18.694;2024-03-02T15:06:16;17.60;99.90
25825;DHT22;13658;44.534;18.694;2024-03-02T15:08:43;17.50;99.90
25825;DHT22;13658;44.534;18.694;2024-03-02T15:11:12;17.50;99.90
25825;DHT22;13658;44.534;18.694;2024-03-02T15:13:38;17.50;99.90
25825;DHT22;13658;44.534;18.694;2024-03-02T15:16:04;17.50;99.90
25825;DHT22;13658;44.534;18.694;2024-03-02T15:18:30;17.60;99.90
25825;DHT22;13658;44.534;18.694;2024-03-02T15:20:56;17.40;99.90
25825;DHT22;13658;44.534;18.694;2024-03-02T15:23:22;17.50;99.90
25825;DHT22;13658;44.534;18.694;2024-03-02T15:25:48;17.50;99.90
25825;DHT22;13658;44.534;18.694;2024-03-02T15:28:14;17.60;99.90